createdAt,value
2019-01-29T00:00:33.032Z,30.73
2019-01-29T00:03:04.038Z,19.63
2019-01-29T00:05:34.984Z,28.07
2019-01-29T00:08:06.066Z,16.43
2019-01-29T00:10:36.858Z,21.33
2019-01-29T00:13:07.612Z,21.17
2019-01-29T00:15:38.349Z,24.73
2019-01-29T00:18:09.095Z,25.27
2019-01-29T00:20:39.797Z,19.87
2019-01-29T00:23:10.611Z,24.83
2019-01-29T00:25:41.270Z,16.17
2019-01-29T00:28:11.999Z,22.73
2019-01-29T00:30:42.838Z,17.10
2019-01-29T00:33:13.602Z,14.53
2019-01-29T00:35:44.378Z,23.57
2019-01-29T00:38:15.082Z,20.77
2019-01-29T00:40:45.880Z,25.03
2019-01-29T00:43:16.612Z,21.20
2019-01-29T00:45:47.369Z,17.03
2019-01-29T00:48:18.160Z,17.97
2019-01-29T00:50:48.903Z,18.27
2019-01-29T00:53:19.708Z,12.77
2019-01-29T00:55:50.466Z,22.03
2019-01-29T00:58:21.121Z,23.43
2019-01-29T01:02:13.678Z,14.53
2019-01-29T01:04:45.836Z,20.30
2019-01-29T01:07:16.630Z,21.30
2019-01-29T01:09:47.975Z,14.63
2019-01-29T01:12:18.743Z,18.53
2019-01-29T01:14:49.490Z,21.97
2019-01-29T01:17:20.386Z,25.43
2019-01-29T01:19:51.090Z,22.43
2019-01-29T01:22:23.421Z,13.83
2019-01-29T01:24:54.350Z,19.77
2019-01-29T01:27:26.079Z,22.50
2019-01-29T01:29:56.781Z,16.63
2019-01-29T01:32:27.498Z,15.60
2019-01-29T01:34:58.214Z,12.83
2019-01-29T01:37:29.038Z,15.87
2019-01-29T01:39:59.839Z,16.27
2019-01-29T01:42:30.592Z,14.73
2019-01-29T01:45:01.257Z,27.33
2019-01-29T01:47:31.989Z,15.33
2019-01-29T01:50:02.786Z,28.37
2019-01-29T02:08:40.249Z,9.00
2019-01-29T02:11:11.003Z,13.90
2019-01-29T02:13:41.726Z,12.63
2019-01-29T02:16:12.376Z,18.33
2019-01-29T02:18:43.110Z,12.37
2019-01-29T02:21:13.957Z,23.03
2019-01-29T02:23:47.410Z,12.17
2019-01-29T02:26:18.149Z,18.07
2019-01-29T02:28:48.779Z,17.10
2019-01-29T02:31:20.460Z,18.23
2019-01-29T02:33:51.077Z,24.80
2019-01-29T02:36:21.673Z,11.43
2019-01-29T02:38:52.431Z,14.37
2019-01-29T02:41:23.126Z,18.17
2019-01-29T02:43:53.765Z,19.50
2019-01-29T02:46:24.481Z,13.00
2019-01-29T02:48:55.170Z,10.10
2019-01-29T02:51:25.898Z,16.43
2019-01-29T02:53:56.554Z,13.60
2019-01-29T02:56:27.277Z,9.57
2019-01-29T02:58:57.958Z,11.67
2019-01-29T03:01:28.665Z,11.43
2019-01-29T03:03:59.393Z,9.00
2019-01-29T03:06:30.048Z,9.10
2019-01-29T03:09:00.701Z,7.33
2019-01-29T03:11:32.429Z,12.70
2019-01-29T03:14:03.230Z,11.87
2019-01-29T03:16:33.958Z,18.60
2019-01-29T03:19:04.878Z,16.20
2019-01-29T03:21:35.612Z,11.43
2019-01-29T03:24:06.283Z,20.87
2019-01-29T03:26:37.162Z,11.37
2019-01-29T03:29:07.954Z,14.33
2019-01-29T03:31:38.697Z,13.83
2019-01-29T03:34:09.584Z,13.20
2019-01-29T03:36:41.833Z,13.23
2019-01-29T03:39:12.688Z,21.87
2019-01-29T03:41:44.547Z,13.47
2019-01-29T03:44:15.476Z,16.57
2019-01-29T03:46:46.158Z,17.93
2019-01-29T03:49:16.798Z,13.23
2019-01-29T03:51:48.618Z,20.83
2019-01-29T03:54:19.682Z,13.13
2019-01-29T03:56:50.382Z,16.70
2019-01-29T03:59:21.129Z,13.67
2019-01-29T04:01:51.898Z,11.83
2019-01-29T04:04:22.656Z,12.07
2019-01-29T04:06:53.285Z,18.27
2019-01-29T04:09:24.022Z,16.77
2019-01-29T04:11:54.717Z,18.37
2019-01-29T04:14:25.494Z,8.63
2019-01-29T04:16:56.117Z,18.03
2019-01-29T04:19:28.416Z,18.57
2019-01-29T04:21:59.082Z,21.83
2019-01-29T04:24:29.762Z,25.43
2019-01-29T04:27:00.470Z,20.17
2019-01-29T04:29:31.286Z,24.63
2019-01-29T04:32:04.260Z,28.13
2019-01-29T04:34:35.048Z,32.07
2019-01-29T04:37:05.750Z,25.17
2019-01-29T04:39:36.367Z,27.40
2019-01-29T04:42:07.008Z,30.07
2019-01-29T04:44:37.648Z,29.80
2019-01-29T04:47:09.921Z,38.13
2019-01-29T04:49:40.745Z,29.10
2019-01-29T04:52:11.523Z,36.77
2019-01-29T04:54:43.556Z,27.73
2019-01-29T04:57:14.317Z,32.07
2019-01-29T04:59:45.026Z,30.90
2019-01-29T05:02:15.787Z,38.43
2019-01-29T05:04:46.597Z,33.00
2019-01-29T05:07:17.419Z,28.70
2019-01-29T05:09:48.169Z,33.83
2019-01-29T05:12:19.010Z,30.57
2019-01-29T05:14:49.711Z,31.57
2019-01-29T05:17:20.427Z,31.63
2019-01-29T05:19:51.139Z,31.17
2019-01-29T05:22:21.871Z,20.93
2019-01-29T05:24:52.624Z,28.00
2019-01-29T05:27:23.514Z,31.33
2019-01-29T05:29:54.212Z,28.27
2019-01-29T05:32:24.953Z,32.47
2019-01-29T05:34:55.779Z,33.90
2019-01-29T05:37:26.497Z,25.43
2019-01-29T05:39:57.210Z,30.60
2019-01-29T05:42:27.915Z,25.50
2019-01-29T05:44:58.697Z,28.23
2019-01-29T05:47:29.437Z,21.80
2019-01-29T05:50:00.300Z,29.63
2019-01-29T05:52:31.050Z,29.93
2019-01-29T05:55:01.843Z,24.87
2019-01-29T05:57:32.610Z,27.83
2019-01-29T06:00:03.346Z,25.57
2019-01-29T06:02:34.061Z,23.67
2019-01-29T06:05:05.698Z,26.40
2019-01-29T06:07:36.855Z,24.33
2019-01-29T06:10:08.018Z,30.97
2019-01-29T06:12:38.688Z,23.93
2019-01-29T06:15:11.738Z,27.33
2019-01-29T06:17:42.479Z,22.63
2019-01-29T06:20:15.804Z,26.07
2019-01-29T06:22:48.342Z,24.90
2019-01-29T06:25:19.198Z,25.03
2019-01-29T06:27:49.983Z,25.33
2019-01-29T06:30:23.171Z,20.77
2019-01-29T06:32:53.938Z,25.33
2019-01-29T06:35:24.813Z,25.10
2019-01-29T06:37:55.454Z,29.93
2019-01-29T06:40:27.889Z,23.87
2019-01-29T06:42:58.669Z,20.13
2019-01-29T06:45:29.445Z,24.33
2019-01-29T06:48:00.177Z,13.23
2019-01-29T06:50:30.866Z,25.87
2019-01-29T06:53:01.787Z,19.50
2019-01-29T06:55:32.742Z,24.70
2019-01-29T06:58:03.524Z,27.43
2019-01-29T07:00:34.326Z,30.53
2019-01-29T07:03:05.482Z,23.83
2019-01-29T07:05:36.298Z,27.70
2019-01-29T07:08:07.513Z,16.87
2019-01-29T07:10:38.281Z,26.50
2019-01-29T07:13:09.009Z,21.70
2019-01-29T07:16:13.939Z,18.50
2019-01-29T07:18:56.077Z,25.30
2019-01-29T07:21:26.849Z,31.50
2019-01-29T07:23:57.575Z,25.20
2019-01-29T07:26:28.362Z,25.27
2019-01-29T07:28:59.193Z,27.03
2019-01-29T07:31:29.963Z,25.37
2019-01-29T07:34:00.726Z,21.63
2019-01-29T07:36:31.423Z,26.27
2019-01-29T07:39:02.246Z,22.47
2019-01-29T07:41:34.207Z,21.50
2019-01-29T07:44:05.048Z,25.97
2019-01-29T07:46:35.754Z,33.80
2019-01-29T07:49:06.485Z,31.47
2019-01-29T07:51:37.130Z,27.13
2019-01-29T07:54:07.797Z,28.80
2019-01-29T07:56:39.526Z,23.47
2019-01-29T07:59:10.244Z,24.73
2019-01-29T08:01:43.923Z,33.63
2019-01-29T08:04:14.711Z,27.20
2019-01-29T08:06:45.585Z,24.47
2019-01-29T08:09:16.356Z,26.37
2019-01-29T08:11:47.213Z,30.23
2019-01-29T08:14:18.054Z,32.20
2019-01-29T08:16:48.850Z,31.20
2019-01-29T08:19:19.671Z,24.20
2019-01-29T08:21:51.346Z,24.47
2019-01-29T08:24:23.335Z,28.50
2019-01-29T08:26:54.251Z,28.23
2019-01-29T08:29:25.075Z,26.60
2019-01-29T08:31:55.842Z,28.67
2019-01-29T08:34:26.978Z,21.00
2019-01-29T08:36:58.640Z,30.90
2019-01-29T08:39:31.206Z,25.10
2019-01-29T08:42:02.167Z,29.83
2019-01-29T08:44:33.096Z,24.77
2019-01-29T08:47:05.477Z,31.90
2019-01-29T08:49:36.318Z,29.00
2019-01-29T08:52:07.063Z,20.57
2019-01-29T08:54:37.849Z,22.40
2019-01-29T08:57:09.061Z,29.10
2019-01-29T08:59:39.789Z,28.13
2019-01-29T09:02:10.804Z,26.90
2019-01-29T09:04:41.621Z,27.57
2019-01-29T09:07:12.389Z,23.93
2019-01-29T09:09:43.565Z,24.67
2019-01-29T09:12:14.607Z,24.17
2019-01-29T09:14:45.262Z,27.30
2019-01-29T09:17:21.775Z,26.73
2019-01-29T09:19:54.990Z,30.33
2019-01-29T09:22:25.760Z,23.23
2019-01-29T09:24:57.472Z,26.30
2019-01-29T09:27:46.095Z,24.67
2019-01-29T09:30:17.166Z,23.63
2019-01-29T09:32:47.907Z,17.97
2019-01-29T09:35:19.829Z,21.20
2019-01-29T09:37:50.593Z,19.97
2019-01-29T09:40:26.718Z,18.87
2019-01-29T09:43:02.561Z,24.77
2019-01-29T09:45:33.313Z,22.10
2019-01-29T09:48:04.146Z,22.87
2019-01-29T09:50:35.002Z,16.03
2019-01-29T09:53:06.007Z,31.60
2019-01-29T09:55:36.787Z,18.30
2019-01-29T09:58:09.562Z,16.17
2019-01-29T10:00:41.950Z,20.00
2019-01-29T10:03:12.813Z,22.07
2019-01-29T10:05:43.606Z,17.90
2019-01-29T10:08:14.455Z,27.40
2019-01-29T10:10:45.356Z,20.33
2019-01-29T10:13:16.128Z,19.90
2019-01-29T10:15:47.168Z,19.67
2019-01-29T10:18:21.317Z,22.17
2019-01-29T10:20:52.100Z,23.63
2019-01-29T10:23:22.833Z,7.73
2019-01-29T10:25:53.667Z,18.17
2019-01-29T10:28:24.470Z,20.50
2019-01-29T10:30:55.243Z,25.13
2019-01-29T10:33:26.257Z,21.57
2019-01-29T10:35:58.832Z,18.03
2019-01-29T10:38:29.654Z,23.97
2019-01-29T10:41:04.786Z,20.60
2019-01-29T10:43:36.342Z,21.70
2019-01-29T10:46:07.145Z,19.00
2019-01-29T10:48:37.866Z,16.23
2019-01-29T10:51:08.709Z,12.97
2019-01-29T10:53:42.467Z,20.07
2019-01-29T10:56:13.246Z,19.57
2019-01-29T10:58:44.143Z,20.40
2019-01-29T11:01:18.049Z,21.27
2019-01-29T11:03:48.926Z,10.90
2019-01-29T11:06:19.761Z,14.10
2019-01-29T11:08:52.101Z,22.87
2019-01-29T11:11:22.826Z,16.53
2019-01-29T11:13:53.716Z,16.20
2019-01-29T11:16:24.555Z,11.17
2019-01-29T11:19:02.939Z,16.47
2019-01-29T11:21:29.203Z,14.30
2019-01-29T11:23:59.846Z,16.33
2019-01-29T11:26:30.588Z,15.93
2019-01-29T11:29:01.392Z,13.20
2019-01-29T11:31:32.310Z,13.83
2019-01-29T11:34:03.306Z,11.80
2019-01-29T11:36:35.833Z,9.50
2019-01-29T11:39:12.435Z,12.37
2019-01-29T11:41:48.194Z,13.73
2019-01-29T11:44:20.523Z,12.13
2019-01-29T11:46:51.214Z,9.70
2019-01-29T11:49:23.615Z,12.90
2019-01-29T11:51:57.093Z,16.33
2019-01-29T11:54:28.875Z,14.03
2019-01-29T11:56:59.658Z,18.87
2019-01-29T11:59:30.488Z,11.53
2019-01-29T12:02:01.421Z,12.43
2019-01-29T12:04:34.297Z,11.53
2019-01-29T12:07:05.142Z,22.60
2019-01-29T12:09:35.973Z,16.53
2019-01-29T12:12:06.935Z,10.10
2019-01-29T12:14:37.745Z,11.87
2019-01-29T12:17:08.563Z,15.00
2019-01-29T12:19:39.358Z,15.80
2019-01-29T12:22:10.165Z,9.53
2019-01-29T12:24:44.301Z,17.67
2019-01-29T12:27:15.590Z,9.63
2019-01-29T12:29:46.377Z,16.53
2019-01-29T12:32:17.186Z,14.40
2019-01-29T12:35:03.662Z,13.57
2019-01-29T12:37:38.616Z,10.80
2019-01-29T12:40:12.727Z,10.67
2019-01-29T12:42:43.513Z,13.53
2019-01-29T12:45:16.695Z,15.27
2019-01-29T12:47:47.889Z,12.70
2019-01-29T12:50:21.579Z,16.03
2019-01-29T12:53:11.406Z,14.67
2019-01-29T12:55:42.552Z,13.57
2019-01-29T12:58:13.321Z,14.43
2019-01-29T13:01:02.517Z,17.67
2019-01-29T13:03:33.324Z,11.03
2019-01-29T13:06:04.572Z,12.43
2019-01-29T13:08:35.317Z,9.43
2019-01-29T13:11:07.198Z,11.70
2019-01-29T13:13:38.036Z,9.87
2019-01-29T13:16:08.763Z,10.83
2019-01-29T13:18:39.545Z,11.33
2019-01-29T13:21:10.354Z,13.93
2019-01-29T13:23:41.210Z,12.70
2019-01-29T13:26:12.035Z,10.83
2019-01-29T13:28:43.327Z,13.70
2019-01-29T13:31:14.121Z,20.13
2019-01-29T13:33:45.992Z,7.13
2019-01-29T13:36:17.993Z,12.37
2019-01-29T13:38:48.691Z,11.27
2019-01-29T13:41:19.598Z,14.00
2019-01-29T13:43:52.069Z,11.10
2019-01-29T13:46:22.868Z,15.37
2019-01-29T13:48:53.609Z,12.90
2019-01-29T13:51:24.633Z,14.00
2019-01-29T13:53:55.540Z,12.40
2019-01-29T13:56:27.926Z,15.63
2019-01-29T13:58:58.741Z,13.40
2019-01-29T14:01:29.518Z,13.30
2019-01-29T14:04:05.961Z,15.30
2019-01-29T14:06:34.040Z,12.47
2019-01-29T14:09:09.362Z,14.70
2019-01-29T14:11:40.227Z,15.07
2019-01-29T14:14:11.065Z,16.27
2019-01-29T14:16:41.823Z,11.37
2019-01-29T14:19:14.091Z,14.50
2019-01-29T14:21:46.362Z,12.77
2019-01-29T14:24:19.480Z,9.57
2019-01-29T14:26:50.190Z,10.43
2019-01-29T14:29:21.061Z,13.57
2019-01-29T14:31:52.345Z,12.90
2019-01-29T14:34:26.652Z,16.10
2019-01-29T14:36:58.638Z,10.77
2019-01-29T14:39:34.092Z,13.27
2019-01-29T14:42:06.164Z,12.13
2019-01-29T14:44:42.018Z,13.53
2019-01-29T14:47:12.939Z,18.67
2019-01-29T14:49:43.888Z,15.87
2019-01-29T14:52:14.762Z,16.50
2019-01-29T14:54:45.523Z,15.93
2019-01-29T14:57:17.871Z,14.77
2019-01-29T14:59:48.832Z,11.77
2019-01-29T15:02:21.199Z,14.33
2019-01-29T15:04:51.982Z,19.30
2019-01-29T15:07:30.346Z,17.73
2019-01-29T15:09:55.307Z,11.13
2019-01-29T15:12:26.236Z,15.47
2019-01-29T15:14:57.618Z,16.80
2019-01-29T15:17:47.318Z,13.77
2019-01-29T15:20:18.141Z,15.53
2019-01-29T15:22:50.708Z,17.57
2019-01-29T15:25:21.566Z,18.43
2019-01-29T15:27:53.987Z,15.67
2019-01-29T15:30:28.035Z,15.43
2019-01-29T15:32:59.138Z,15.47
2019-01-29T15:35:30.065Z,15.83
2019-01-29T15:38:03.840Z,15.03
2019-01-29T15:40:40.584Z,17.20
2019-01-29T15:43:13.215Z,21.73
2019-01-29T15:45:45.653Z,16.57
2019-01-29T15:48:16.510Z,21.37
2019-01-29T15:50:47.336Z,16.83
2019-01-29T15:53:18.151Z,15.70
2019-01-29T15:55:49.043Z,20.60
2019-01-29T15:58:19.945Z,22.47
2019-01-29T16:00:50.815Z,18.07
2019-01-29T16:03:22.062Z,22.03
2019-01-29T16:05:59.741Z,15.83
2019-01-29T16:08:33.975Z,17.27
2019-01-29T16:11:24.505Z,26.37
2019-01-29T16:13:59.804Z,17.97
2019-01-29T16:16:59.242Z,22.63
2019-01-29T16:19:30.017Z,18.87
2019-01-29T16:22:01.071Z,22.67
2019-01-29T16:24:31.816Z,16.70
2019-01-29T16:27:06.990Z,24.50
2019-01-29T16:29:35.964Z,18.73
2019-01-29T16:32:08.403Z,15.80
2019-01-29T16:34:39.278Z,22.20
2019-01-29T16:37:11.282Z,19.03
2019-01-29T16:39:43.086Z,20.57
2019-01-29T16:42:15.471Z,28.23
2019-01-29T16:44:46.363Z,19.40
2019-01-29T16:47:17.196Z,21.50
2019-01-29T16:49:47.947Z,18.67
2019-01-29T16:52:18.692Z,18.07
2019-01-29T16:54:49.478Z,20.80
2019-01-29T16:57:21.942Z,19.10
2019-01-29T16:59:52.810Z,19.80
2019-01-29T17:02:23.591Z,20.67
2019-01-29T17:04:54.423Z,25.67
2019-01-29T17:07:25.236Z,19.17
2019-01-29T17:09:55.999Z,19.87
2019-01-29T17:12:26.826Z,23.07
2019-01-29T17:14:59.115Z,21.43
2019-01-29T17:17:29.947Z,30.60
2019-01-29T17:20:00.761Z,22.53
2019-01-29T17:22:31.674Z,17.70
2019-01-29T17:25:02.438Z,22.73
2019-01-29T17:27:40.072Z,20.37
2019-01-29T17:30:07.746Z,18.50
2019-01-29T17:32:38.601Z,19.97
2019-01-29T17:35:09.519Z,21.27
2019-01-29T17:37:42.689Z,17.80
2019-01-29T17:40:14.227Z,20.13
2019-01-29T17:42:46.790Z,20.67
2019-01-29T17:45:21.370Z,22.80
2019-01-29T17:47:52.725Z,21.67
2019-01-29T17:50:29.619Z,22.23
2019-01-29T17:53:00.390Z,21.23
2019-01-29T17:55:32.790Z,18.53
2019-01-29T17:58:03.707Z,23.37
2019-01-29T18:00:35.430Z,22.27
2019-01-29T18:03:06.805Z,28.37
2019-01-29T18:05:37.630Z,25.33
2019-01-29T18:08:08.391Z,22.13
2019-01-29T18:10:39.423Z,20.67
2019-01-29T18:13:11.819Z,21.50
2019-01-29T18:15:42.605Z,21.33
2019-01-29T18:18:14.010Z,18.13
2019-01-29T18:20:44.824Z,19.57
2019-01-29T18:23:15.895Z,20.63
2019-01-29T18:25:46.661Z,19.30
2019-01-29T18:28:17.468Z,18.87
2019-01-29T18:30:48.231Z,18.40
2019-01-29T18:33:43.661Z,22.43
2019-01-29T18:36:14.570Z,23.47
2019-01-29T18:38:45.406Z,17.70
2019-01-29T18:41:17.858Z,20.10
2019-01-29T18:43:48.657Z,17.70
2019-01-29T18:46:19.858Z,20.53
2019-01-29T18:48:50.667Z,19.07
2019-01-29T18:51:22.348Z,20.30
2019-01-29T18:53:53.060Z,17.20
2019-01-29T18:58:11.673Z,6.07
2019-01-29T19:00:54.391Z,22.37
2019-01-29T19:03:18.841Z,18.77
2019-01-29T19:05:49.718Z,20.20
2019-01-29T19:08:23.819Z,16.77
2019-01-29T19:11:13.246Z,16.70
2019-01-29T19:13:44.101Z,16.13
2019-01-29T19:16:15.735Z,20.57
2019-01-29T19:18:46.623Z,20.83
2019-01-29T19:21:17.476Z,22.47
2019-01-29T19:23:48.246Z,17.40
2019-01-29T19:26:19.275Z,22.33
2019-01-29T19:28:50.111Z,25.67
2019-01-29T19:31:20.765Z,15.83
2019-01-29T19:33:51.543Z,18.67
2019-01-29T19:36:22.267Z,16.60
2019-01-29T19:39:22.562Z,16.23
2019-01-29T19:41:58.748Z,18.50
2019-01-29T19:44:29.418Z,21.57
2019-01-29T19:47:04.821Z,23.20
2019-01-29T19:49:49.601Z,16.03
2019-01-29T19:52:27.240Z,21.30
2019-01-29T19:55:06.522Z,17.63
2019-01-29T19:57:48.007Z,17.23
2019-01-29T20:00:44.038Z,17.23
2019-01-29T20:03:29.512Z,20.80
2019-01-29T20:06:15.990Z,18.20
2019-01-29T20:08:49.360Z,26.23
2019-01-29T20:11:21.029Z,17.20
2019-01-29T20:13:51.793Z,18.23
2019-01-29T20:16:23.287Z,16.03
2019-01-29T20:18:54.120Z,24.30
2019-01-29T20:21:25.029Z,20.07
2019-01-29T20:23:55.955Z,15.57
2019-01-29T20:26:26.775Z,18.60
2019-01-29T20:28:58.026Z,20.07
2019-01-29T20:31:29.034Z,16.93
2019-01-29T20:34:01.132Z,19.90
2019-01-29T20:36:33.220Z,16.60
2019-01-29T20:39:09.152Z,15.30
2019-01-29T20:41:40.917Z,17.23
2019-01-29T20:44:11.890Z,19.53
2019-01-29T20:46:42.944Z,17.17
2019-01-29T20:49:13.925Z,14.27
2019-01-29T20:51:44.802Z,18.90
2019-01-29T20:54:15.619Z,21.27
2019-01-29T20:56:46.427Z,18.97
2019-01-29T20:59:17.406Z,18.60
2019-01-29T21:01:48.944Z,18.23
2019-01-29T21:04:19.957Z,18.07
2019-01-29T21:06:50.705Z,19.87
2019-01-29T21:09:23.697Z,23.80
2019-01-29T21:11:54.697Z,18.20
2019-01-29T21:14:25.744Z,16.23
2019-01-29T21:16:57.094Z,15.07
2019-01-29T21:19:29.672Z,22.80
2019-01-29T21:22:00.577Z,18.73
2019-01-29T21:24:31.431Z,17.27
2019-01-29T21:27:02.277Z,17.23
2019-01-29T21:29:34.006Z,25.70
2019-01-29T21:32:06.308Z,19.97
2019-01-29T21:34:37.071Z,17.50
2019-01-29T21:37:08.167Z,18.77
2019-01-29T21:39:39.035Z,20.70
2019-01-29T21:42:09.810Z,22.93
2019-01-29T21:44:40.632Z,20.80
2019-01-29T21:47:12.955Z,28.27
2019-01-29T21:49:43.931Z,15.97
2019-01-29T21:52:14.702Z,17.00
2019-01-29T21:54:45.391Z,21.13
2019-01-29T21:57:16.112Z,22.20
2019-01-29T21:59:48.915Z,17.30
2019-01-29T22:02:20.895Z,21.03
2019-01-29T22:04:51.794Z,23.77
2019-01-29T22:07:22.598Z,18.30
2019-01-29T22:09:53.672Z,19.13
2019-01-29T22:13:22.367Z,18.50
2019-01-29T22:15:53.134Z,18.40
2019-01-29T22:18:24.387Z,18.07
2019-01-29T22:20:55.230Z,19.63
2019-01-29T22:23:26.047Z,21.10
2019-01-29T22:25:56.838Z,22.63
2019-01-29T22:28:27.648Z,19.13
2019-01-29T22:30:58.368Z,17.90
2019-01-29T22:33:29.160Z,22.67
2019-01-29T22:35:59.922Z,19.03
2019-01-29T22:38:30.727Z,20.03
2019-01-29T22:41:01.611Z,17.07
2019-01-29T22:43:32.368Z,20.30
2019-01-29T22:46:03.157Z,18.50
2019-01-29T22:48:34.140Z,15.40
2019-01-29T22:51:04.989Z,19.03
2019-01-29T22:53:35.717Z,17.47
2019-01-29T22:56:06.477Z,15.87
2019-01-29T22:58:37.239Z,21.63
2019-01-29T23:01:35.081Z,16.30
2019-01-29T23:04:26.192Z,21.50
2019-01-29T23:07:29.303Z,20.20
2019-01-29T23:10:00.341Z,17.53
2019-01-29T23:12:32.305Z,24.00
2019-01-29T23:15:04.821Z,16.30
2019-01-29T23:17:35.722Z,19.30
2019-01-29T23:20:07.543Z,20.07
2019-01-29T23:22:38.430Z,15.80
2019-01-29T23:25:09.613Z,17.13
2019-01-29T23:27:40.382Z,16.23
2019-01-29T23:30:14.562Z,22.80
2019-01-29T23:32:45.282Z,22.93
2019-01-29T23:35:16.217Z,21.70
2019-01-29T23:37:46.890Z,15.20
2019-01-29T23:40:17.668Z,22.47
2019-01-29T23:42:48.450Z,18.33
2019-01-29T23:45:19.214Z,19.50
2019-01-29T23:48:00.338Z,20.37
2019-01-29T23:50:31.686Z,18.83
2019-01-29T23:53:02.475Z,18.23
2019-01-29T23:55:33.344Z,19.13
2019-01-29T23:58:04.081Z,18.93
